Time;durP1;ratioP1;P1;durP2;ratioP2;P2;SDS_P1;SDS_P2;PMS_P1;PMS_P2;Temp;Humidity;BMP_temperature;BMP_pressure;BME280_temperature;BME280_humidity;BME280_pressure;Samples;Min_cycle;Max_cycle;Signal;HPM_P1;HPM_P2
2023/12/28 00:00:32;;;;;;;3.60;3.30;;;;;;;3.28;100.00;96954.63;5082415;28;20249;-54
2023/12/28 00:02:59;;;;;;;4.33;3.93;;;;;;;3.28;100.00;96973.75;5082394;28;20210;-57
2023/12/28 00:05:25;;;;;;;4.20;3.80;;;;;;;3.33;100.00;96973.50;5082377;28;20193;-57
2023/12/28 00:07:57;;;;;;;4.67;4.27;;;;;;;3.32;100.00;96972.66;5082410;28;20558;-56
2023/12/28 00:10:24;;;;;;;4.53;4.10;;;;;;;3.38;100.00;96971.44;5080979;28;20206;-56
2023/12/28 00:12:52;;;;;;;6.57;4.43;;;;;;;3.45;100.00;96970.13;5082582;28;20318;-57
2023/12/28 00:15:19;;;;;;;6.60;4.63;;;;;;;3.45;100.00;96967.53;5082063;28;20308;-57
2023/12/28 00:17:45;;;;;;;5.50;5.00;;;;;;;3.38;100.00;96966.22;5081891;28;20271;-57
2023/12/28 00:20:13;;;;;;;6.87;5.10;;;;;;;3.40;100.00;96978.25;5081364;28;20278;-57
2023/12/28 00:22:39;;;;;;;5.20;4.70;;;;;;;3.38;100.00;96976.66;5082160;28;20198;-57
2023/12/28 00:25:07;;;;;;;5.90;4.70;;;;;;;3.43;100.00;96985.09;5081681;28;20198;-56
2023/12/28 00:27:33;;;;;;;5.73;5.20;;;;;;;3.50;100.00;96978.56;5081401;28;20589;-57
2023/12/28 00:30:02;;;;;;;6.37;5.23;;;;;;;3.46;100.00;96982.28;5081132;28;20538;-56
2023/12/28 00:32:28;;;;;;;5.73;5.13;;;;;;;3.50;100.00;96986.41;5080655;28;20214;-57
2023/12/28 00:34:55;;;;;;;5.00;4.50;;;;;;;3.48;100.00;96977.78;5081797;28;20230;-57
2023/12/28 00:37:21;;;;;;;5.73;5.23;;;;;;;3.48;100.00;96975.19;5080883;28;20294;-55
2023/12/28 00:39:49;;;;;;;5.73;5.13;;;;;;;3.51;100.00;96973.22;5082434;28;20293;-55
2023/12/28 00:42:16;;;;;;;6.63;4.97;;;;;;;3.41;100.00;96971.25;5082173;28;20201;-56
2023/12/28 00:44:43;;;;;;;4.83;4.43;;;;;;;3.37;100.00;96970.59;5086802;28;20197;-56
2023/12/28 00:47:10;;;;;;;5.03;4.63;;;;;;;3.35;100.00;96962.00;5089335;28;20206;-55
2023/12/28 00:49:40;;;;;;;4.50;4.10;;;;;;;3.39;100.00;96962.69;5086737;28;20205;-56
2023/12/28 00:52:06;;;;;;;5.93;4.93;;;;;;;3.36;100.00;96962.84;5081092;28;20666;-57
2023/12/28 00:54:33;;;;;;;3.90;3.60;;;;;;;3.43;100.00;96966.78;5081242;28;20529;-57
2023/12/28 00:57:00;;;;;;;4.47;4.07;;;;;;;3.47;100.00;96976.13;5081211;28;20213;-57
2023/12/28 00:59:26;;;;;;;3.60;3.30;;;;;;;3.42;100.00;96971.16;5080909;28;20206;-55
2023/12/28 01:01:53;;;;;;;3.60;3.30;;;;;;;3.49;100.00;96982.09;5081927;28;20277;-56
2023/12/28 01:04:23;;;;;;;3.70;3.40;;;;;;;3.47;100.00;96987.41;5081590;28;20199;-56
2023/12/28 01:06:51;;;;;;;4.33;3.90;;;;;;;3.52;100.00;96981.91;5081569;28;20189;-56
2023/12/28 01:09:18;;;;;;;4.30;3.90;;;;;;;3.58;100.00;96994.59;5081335;28;20197;-57
2023/12/28 01:11:45;;;;;;;5.47;4.30;;;;;;;3.61;100.00;96999.69;5081020;28;20625;-56
2023/12/28 01:14:11;;;;;;;8.20;7.23;;;;;;;3.52;100.00;96984.53;5081371;28;20194;-56
2023/12/28 01:16:39;;;;;;;5.67;4.90;;;;;;;3.60;100.00;96987.53;5081176;28;20300;-57
2023/12/28 01:19:06;;;;;;;4.97;4.40;;;;;;;3.54;100.00;96998.38;5081316;28;20206;-57
2023/12/28 01:21:34;;;;;;;4.60;4.20;;;;;;;3.54;100.00;97008.81;5081223;28;20226;-57
2023/12/28 01:24:00;;;;;;;4.83;4.30;;;;;;;3.49;100.00;96995.16;5081636;28;20199;-57
2023/12/28 01:26:29;;;;;;;4.83;4.13;;;;;;;3.54;100.00;97008.81;5081187;28;20362;-57
2023/12/28 01:28:56;;;;;;;4.80;4.30;;;;;;;3.45;100.00;97007.59;5081064;28;20202;-57
2023/12/28 01:31:23;;;;;;;4.30;3.83;;;;;;;3.51;100.00;97003.75;5084917;28;20271;-57
2023/12/28 01:33:51;;;;;;;4.20;3.77;;;;;;;3.40;100.00;97016.66;5084840;28;20630;-57
2023/12/28 01:36:18;;;;;;;4.00;3.70;;;;;;;3.38;100.00;97013.25;5083930;28;20305;-54
2023/12/28 01:38:48;;;;;;;4.20;3.70;;;;;;;3.36;100.00;97012.53;5084602;28;20243;-57
2023/12/28 01:41:16;;;;;;;3.43;3.13;;;;;;;3.38;100.00;97018.50;5081982;28;20635;-57
2023/12/28 01:43:43;;;;;;;3.30;3.00;;;;;;;3.32;100.00;97024.94;5081252;28;21384;-57
2023/12/28 01:46:13;;;;;;;3.83;3.10;;;;;;;3.26;100.00;97025.25;5085126;28;20214;-57
2023/12/28 01:48:42;;;;;;;3.40;3.10;;;;;;;3.24;100.00;97021.91;5085498;28;20197;-55
2023/12/28 01:51:10;;;;;;;2.90;2.70;;;;;;;3.24;100.00;97021.91;5084647;28;20613;-57
2023/12/28 01:53:37;;;;;;;2.83;2.63;;;;;;;3.33;100.00;97020.56;5084650;28;20218;-56
2023/12/28 01:56:06;;;;;;;2.80;2.60;;;;;;;3.33;100.00;97031.81;5084519;28;20694;-57
2023/12/28 01:58:34;;;;;;;2.93;2.73;;;;;;;3.29;100.00;97029.50;5084848;28;20202;-57
2023/12/28 02:01:03;;;;;;;3.17;2.73;;;;;;;3.32;100.00;97039.78;5084690;28;20234;-56
2023/12/28 02:03:30;;;;;;;3.10;2.80;;;;;;;3.36;100.00;97036.91;5084365;28;20194;-57
2023/12/28 02:05:56;;;;;;;2.57;2.37;;;;;;;3.39;100.00;97035.88;5084934;28;20198;-55
2023/12/28 02:08:24;;;;;;;2.93;2.73;;;;;;;3.41;100.00;97039.22;5084437;28;20209;-57
2023/12/28 02:10:51;;;;;;;3.00;2.60;;;;;;;3.42;100.00;97046.13;5085009;28;20324;-56
2023/12/28 02:13:19;;;;;;;3.00;2.70;;;;;;;3.49;100.00;97052.69;5082988;28;20230;-56
2023/12/28 02:15:48;;;;;;;3.00;2.80;;;;;;;3.44;100.00;97044.25;5084489;28;20253;-55
2023/12/28 02:18:21;;;;;;;2.40;2.20;;;;;;;3.45;100.00;97049.41;5084776;28;20289;-56
2023/12/28 02:20:48;;;;;;;2.60;2.40;;;;;;;3.49;100.00;97052.69;5085287;28;20530;-56
2023/12/28 02:23:15;;;;;;;4.20;2.90;;;;;;;3.46;100.00;97055.50;5092714;28;20728;-55
2023/12/28 02:25:42;;;;;;;3.00;2.80;;;;;;;3.48;100.00;97061.47;5093983;28;20241;-57
2023/12/28 02:28:09;;;;;;;3.37;3.07;;;;;;;3.43;100.00;97047.81;5092129;28;20197;-57
2023/12/28 02:30:36;;;;;;;2.93;2.73;;;;;;;3.42;100.00;97048.75;5093510;28;20205;-57
2023/12/28 02:33:08;;;;;;;3.20;2.97;;;;;;;3.46;100.00;97031.97;5091353;28;20218;-57
2023/12/28 02:35:38;;;;;;;3.73;2.87;;;;;;;3.46;100.00;97047.66;5087271;28;20294;-56
2023/12/28 02:38:10;;;;;;;3.40;3.10;;;;;;;3.50;100.00;97041.31;5083939;28;20236;-56
2023/12/28 02:40:39;;;;;;;4.13;3.73;;;;;;;3.45;100.00;97046.81;5084765;28;20193;-56
2023/12/28 02:43:08;;;;;;;3.00;2.70;;;;;;;3.49;100.00;97043.09;5083840;28;20638;-56
2023/12/28 02:45:35;;;;;;;2.60;2.27;;;;;;;3.48;100.00;97053.63;5084808;28;20221;-57
2023/12/28 02:48:01;;;;;;;3.10;2.80;;;;;;;3.61;100.00;97046.75;5084531;28;20209;-57
2023/12/28 02:50:30;;;;;;;2.60;2.40;;;;;;;3.64;100.00;97062.25;5082846;28;20653;-57
2023/12/28 02:52:56;;;;;;;4.63;2.67;;;;;;;3.62;100.00;97074.56;5083235;28;20761;-57
2023/12/28 02:55:23;;;;;;;2.67;2.47;;;;;;;3.66;100.00;97077.84;5083025;28;20206;-57
2023/12/28 02:57:51;;;;;;;3.30;2.77;;;;;;;3.69;100.00;97075.88;5083918;28;20212;-57
2023/12/28 03:00:19;;;;;;;5.10;3.07;;;;;;;3.68;100.00;97062.91;5083354;28;20559;-56
2023/12/28 03:02:45;;;;;;;2.80;2.50;;;;;;;3.67;100.00;97072.53;5089802;28;20309;-57
2023/12/28 03:05:12;;;;;;;2.67;2.47;;;;;;;3.63;100.00;97075.41;5092307;28;20198;-55
2023/12/28 03:07:40;;;;;;;2.97;2.70;;;;;;;3.63;100.00;97073.63;5093512;28;20258;-57
2023/12/28 03:10:07;;;;;;;2.70;2.50;;;;;;;3.65;100.00;97084.84;5084122;28;20289;-56
2023/12/28 03:12:36;;;;;;;2.50;2.40;;;;;;;3.58;100.00;97082.69;5083134;28;20297;-57
2023/12/28 03:15:04;;;;;;;2.60;2.50;;;;;;;3.64;100.00;97070.09;5083306;28;20195;-57
2023/12/28 03:17:33;;;;;;;2.80;2.60;;;;;;;3.62;100.00;97058.88;5082818;28;20784;-57
2023/12/28 03:19:59;;;;;;;3.90;2.97;;;;;;;3.61;100.00;97056.38;5083194;28;20293;-56
2023/12/28 03:22:26;;;;;;;2.90;2.70;;;;;;;3.63;100.00;97044.88;5083477;28;20199;-57
2023/12/28 03:24:54;;;;;;;3.83;3.00;;;;;;;3.73;100.00;97047.78;5083347;28;20268;-56
2023/12/28 03:27:20;;;;;;;3.97;2.80;;;;;;;3.78;100.00;97043.13;5082501;28;20326;-55
2023/12/28 03:29:47;;;;;;;2.87;2.67;;;;;;;3.85;100.00;97047.06;5082552;28;20301;-57
2023/12/28 03:32:15;;;;;;;3.57;3.27;;;;;;;3.89;100.00;97048.56;5083469;28;20198;-57
2023/12/28 03:34:43;;;;;;;3.10;2.80;;;;;;;3.86;100.00;97052.19;5082776;28;20235;-56
2023/12/28 03:37:11;;;;;;;3.07;2.80;;;;;;;3.71;100.00;97063.56;5083000;28;20212;-56
2023/12/28 03:39:38;;;;;;;5.13;2.40;;;;;;;3.75;100.00;97059.00;5082271;28;20202;-54
2023/12/28 03:42:04;;;;;;;3.43;3.10;;;;;;;3.80;100.00;97062.16;5082814;28;20208;-56
2023/12/28 03:44:31;;;;;;;2.90;2.70;;;;;;;3.78;100.00;97080.59;5082404;28;20230;-57
2023/12/28 03:46:58;;;;;;;3.30;3.00;;;;;;;3.82;100.00;97086.47;5082670;28;20396;-57
2023/12/28 03:49:24;;;;;;;5.07;3.30;;;;;;;3.83;100.00;97085.53;5082437;28;20521;-57
2023/12/28 03:51:53;;;;;;;2.83;2.63;;;;;;;3.72;100.00;97080.94;5083281;28;20253;-57
2023/12/28 03:54:19;;;;;;;2.90;2.60;;;;;;;3.71;100.00;97081.88;5082096;28;20229;-57
2023/12/28 03:56:47;;;;;;;3.50;2.73;;;;;;;3.68;100.00;97079.47;5082794;28;20217;-57
2023/12/28 03:59:15;;;;;;;3.20;2.90;;;;;;;3.58;100.00;97072.25;5081522;28;20202;-57
2023/12/28 04:01:41;;;;;;;4.37;2.57;;;;;;;3.57;100.00;97076.63;5082895;28;20289;-57
2023/12/28 04:04:08;;;;;;;3.63;2.90;;;;;;;3.37;100.00;97084.75;5082248;28;20200;-57
2023/12/28 04:06:35;;;;;;;3.90;2.80;;;;;;;3.50;100.00;97080.53;5082521;28;20234;-57
2023/12/28 04:09:03;;;;;;;2.97;2.77;;;;;;;3.44;100.00;97088.72;5081725;28;20197;-57
2023/12/28 04:11:29;;;;;;;3.00;2.80;;;;;;;3.38;100.00;97079.47;5082942;28;20567;-57
2023/12/28 04:13:56;;;;;;;3.40;3.10;;;;;;;3.39;100.00;97080.31;5081754;28;20214;-57
2023/12/28 04:16:23;;;;;;;2.87;2.67;;;;;;;3.32;100.00;97078.97;5082672;28;20197;-57
2023/12/28 04:18:50;;;;;;;4.53;3.00;;;;;;;3.28;100.00;97080.06;5082098;28;20216;-56
2023/12/28 04:21:16;;;;;;;3.10;2.70;;;;;;;3.21;100.00;97082.19;5081721;28;20205;-56
2023/12/28 04:23:43;;;;;;;3.10;2.80;;;;;;;3.23;100.00;97082.09;5081742;28;20202;-56
2023/12/28 04:26:11;;;;;;;3.23;2.70;;;;;;;3.18;100.00;97082.38;5082051;28;20198;-55
2023/12/28 04:28:38;;;;;;;4.30;2.50;;;;;;;3.17;100.00;97085.06;5081377;28;20206;-57
2023/12/28 04:31:05;;;;;;;4.33;3.13;;;;;;;3.16;100.00;97078.16;5082174;28;20199;-56
2023/12/28 04:33:32;;;;;;;4.00;3.30;;;;;;;3.16;100.00;97097.28;5081341;28;20232;-57
2023/12/28 04:36:03;;;;;;;3.20;2.90;;;;;;;3.02;100.00;97089.38;5081703;28;20190;-55
2023/12/28 04:38:29;;;;;;;3.73;2.97;;;;;;;3.05;100.00;97088.41;5081259;28;20199;-57
2023/12/28 04:40:56;;;;;;;2.70;2.50;;;;;;;2.99;100.00;97082.56;5081902;28;20193;-56
2023/12/28 04:43:24;;;;;;;3.10;2.80;;;;;;;2.92;100.00;97072.53;5082318;28;20190;-57
2023/12/28 04:45:51;;;;;;;3.10;2.90;;;;;;;2.86;100.00;97073.75;5085933;28;20286;-56
2023/12/28 04:48:20;;;;;;;3.10;2.77;;;;;;;2.90;100.00;97072.66;5084911;28;20749;-57
2023/12/28 04:50:47;;;;;;;3.00;2.70;;;;;;;2.84;100.00;97077.34;5084397;28;20202;-56
2023/12/28 04:53:14;;;;;;;2.80;2.60;;;;;;;2.86;100.00;97067.69;5084869;28;20232;-56
2023/12/28 04:55:40;;;;;;;2.80;2.60;;;;;;;2.84;100.00;97075.59;5086235;28;20293;-57
2023/12/28 04:58:07;;;;;;;3.07;2.87;;;;;;;2.83;100.00;97067.84;5086952;28;20209;-55
2023/12/28 05:00:35;;;;;;;3.00;2.70;;;;;;;2.80;100.00;97071.44;5086768;28;20630;-56
2023/12/28 05:03:01;;;;;;;3.03;2.80;;;;;;;2.70;100.00;97070.28;5085412;28;20213;-56
2023/12/28 05:05:28;;;;;;;9.40;3.10;;;;;;;2.71;100.00;97064.16;5086169;28;20199;-55
2023/12/28 05:07:55;;;;;;;3.20;2.90;;;;;;;2.65;100.00;97069.72;5092329;28;20710;-55
2023/12/28 05:10:21;;;;;;;3.07;2.70;;;;;;;2.59;100.00;97088.31;5087178;28;20213;-57
2023/12/28 05:12:48;;;;;;;3.97;3.00;;;;;;;2.57;100.00;97086.72;5089527;28;20198;-56
2023/12/28 05:15:15;;;;;;;3.00;2.60;;;;;;;2.58;100.00;97094.47;5089395;28;20332;-55
2023/12/28 05:17:43;;;;;;;5.23;2.57;;;;;;;2.60;100.00;97087.38;5089850;28;20215;-55
2023/12/28 05:20:10;;;;;;;4.90;3.80;;;;;;;2.64;100.00;97094.13;5102508;28;20225;-56
2023/12/28 05:22:37;;;;;;;3.40;3.10;;;;;;;2.66;100.00;97081.81;5105953;28;20206;-55
2023/12/28 05:25:05;;;;;;;3.00;2.80;;;;;;;2.63;100.00;97070.69;5098468;28;20261;-56
2023/12/28 05:27:32;;;;;;;3.20;2.90;;;;;;;2.50;100.00;97076.59;5088059;28;20207;-55
2023/12/28 05:29:59;;;;;;;2.90;2.70;;;;;;;2.43;100.00;97069.19;5085549;28;20190;-56
2023/12/28 05:32:26;;;;;;;2.93;2.73;;;;;;;2.54;100.00;97072.06;5085995;28;20211;-57
2023/12/28 05:34:54;;;;;;;3.50;3.20;;;;;;;2.52;100.00;97073.91;5086108;28;20217;-56
2023/12/28 05:37:20;;;;;;;4.13;2.90;;;;;;;2.50;100.00;97065.31;5086443;28;20198;-55
2023/12/28 05:39:47;;;;;;;3.87;3.10;;;;;;;2.50;100.00;97070.53;5085485;28;20547;-57
2023/12/28 05:42:13;;;;;;;3.10;2.90;;;;;;;2.48;100.00;97075.00;5085927;28;20293;-55
2023/12/28 05:44:42;;;;;;;3.40;2.90;;;;;;;2.36;100.00;97073.06;5085411;28;20320;-55
2023/12/28 05:47:09;;;;;;;2.80;2.60;;;;;;;2.28;100.00;97067.41;5085640;28;20206;-56
2023/12/28 05:49:35;;;;;;;3.37;3.00;;;;;;;2.37;100.00;97066.91;5085097;28;20261;-56
2023/12/28 05:52:04;;;;;;;3.27;2.67;;;;;;;2.38;100.00;97056.38;5084853;28;20293;-57
2023/12/28 05:54:30;;;;;;;3.83;3.00;;;;;;;2.38;100.00;97050.31;5084598;28;20218;-56
2023/12/28 05:56:59;;;;;;;3.57;2.77;;;;;;;2.38;100.00;97051.16;5085161;28;20217;-55
2023/12/28 05:59:28;;;;;;;3.17;2.83;;;;;;;2.30;100.00;97049.91;5083914;28;20198;-57
2023/12/28 06:01:55;;;;;;;3.03;2.80;;;;;;;2.30;100.00;97057.75;5085377;28;20209;-57
2023/12/28 06:04:21;;;;;;;3.10;2.80;;;;;;;2.24;100.00;97063.25;5084142;28;20186;-55
2023/12/28 06:06:48;;;;;;;2.97;2.67;;;;;;;2.34;100.00;97077.50;5084300;28;20537;-57
2023/12/28 06:09:16;;;;;;;3.00;2.80;;;;;;;2.28;100.00;97080.44;5084298;28;20715;-57
2023/12/28 06:11:43;;;;;;;2.93;2.63;;;;;;;2.31;100.00;97080.28;5083685;28;20211;-56
2023/12/28 06:14:11;;;;;;;3.40;3.10;;;;;;;2.36;100.00;97075.66;5083793;28;20225;-57
2023/12/28 06:16:38;;;;;;;3.03;2.83;;;;;;;2.41;100.00;97077.09;5083690;28;20194;-57
2023/12/28 06:19:05;;;;;;;3.50;2.80;;;;;;;2.42;100.00;97080.56;5084117;28;20230;-57
2023/12/28 06:21:32;;;;;;;3.87;3.30;;;;;;;2.38;100.00;97063.38;5084554;28;20229;-57
2023/12/28 06:23:59;;;;;;;3.40;3.10;;;;;;;2.39;100.00;97062.44;5084018;28;20194;-57
2023/12/28 06:26:27;;;;;;;3.20;3.00;;;;;;;2.32;100.00;97061.09;5084069;28;20216;-57
2023/12/28 06:28:54;;;;;;;3.90;2.93;;;;;;;2.35;100.00;97071.38;5083569;28;20202;-57
2023/12/28 06:31:20;;;;;;;5.67;3.00;;;;;;;2.36;100.00;97073.91;5084079;28;20288;-57
2023/12/28 06:33:47;;;;;;;4.23;2.97;;;;;;;2.32;100.00;97072.38;5084044;28;20222;-57
2023/12/28 06:36:14;;;;;;;3.20;2.80;;;;;;;2.16;100.00;97070.69;5089496;28;20241;-56
2023/12/28 06:38:40;;;;;;;3.30;3.00;;;;;;;2.24;100.00;97074.56;5089924;28;20194;-57
2023/12/28 06:41:13;;;;;;;3.20;2.90;;;;;;;2.14;100.00;97075.13;5091141;28;20312;-57
2023/12/28 06:43:41;;;;;;;3.00;2.70;;;;;;;2.20;100.00;97065.19;5086547;28;20206;-57
2023/12/28 06:46:08;;;;;;;3.37;2.87;;;;;;;2.28;100.00;97065.63;5084810;28;20206;-56
2023/12/28 06:48:40;;;;;;;2.77;2.53;;;;;;;2.24;100.00;97068.47;5086105;28;20214;-57
2023/12/28 06:51:08;;;;;;;3.00;2.80;;;;;;;2.24;100.00;97063.25;5089639;28;20198;-57
2023/12/28 06:53:34;;;;;;;2.70;2.50;;;;;;;2.14;100.00;97068.13;5087941;28;20329;-57
2023/12/28 06:56:01;;;;;;;3.20;2.90;;;;;;;2.21;100.00;97079.09;5090331;28;20209;-56
2023/12/28 06:58:28;;;;;;;3.37;2.70;;;;;;;2.25;100.00;97080.63;5093755;28;20221;-55
2023/12/28 07:00:58;;;;;;;2.77;2.57;;;;;;;2.25;100.00;97078.00;5090039;28;20317;-56
2023/12/28 07:03:25;;;;;;;2.60;2.40;;;;;;;2.28;100.00;97075.22;5084106;28;20198;-56
2023/12/28 07:05:52;;;;;;;4.10;3.10;;;;;;;2.30;100.00;97076.00;5083437;28;20224;-57
2023/12/28 07:08:18;;;;;;;2.80;2.60;;;;;;;2.10;100.00;97079.66;5083933;28;20210;-56
2023/12/28 07:10:45;;;;;;;3.10;2.90;;;;;;;2.17;100.00;97088.84;5084033;28;20199;-57
2023/12/28 07:13:12;;;;;;;3.23;2.93;;;;;;;2.23;100.00;97103.34;5083874;28;20301;-56
2023/12/28 07:15:38;;;;;;;4.67;2.63;;;;;;;2.26;100.00;97108.41;5083266;28;20201;-57
2023/12/28 07:18:06;;;;;;;2.97;2.77;;;;;;;2.34;100.00;97116.66;5083892;28;20205;-56
2023/12/28 07:20:33;;;;;;;3.27;2.80;;;;;;;2.29;100.00;97111.69;5083269;28;20210;-55
2023/12/28 07:23:00;;;;;;;4.03;2.60;;;;;;;2.35;100.00;97105.28;5082930;28;20289;-57
2023/12/28 07:25:27;;;;;;;3.83;2.70;;;;;;;2.36;100.00;97110.44;5083321;28;20550;-56
2023/12/28 07:27:55;;;;;;;2.97;2.77;;;;;;;2.33;100.00;97113.22;5083195;28;20702;-56
2023/12/28 07:30:24;;;;;;;3.40;3.10;;;;;;;2.29;100.00;97113.47;5082928;28;20236;-57
2023/12/28 07:32:51;;;;;;;4.40;3.33;;;;;;;2.36;100.00;97102.63;5083152;28;20208;-57
2023/12/28 07:35:19;;;;;;;2.90;2.70;;;;;;;2.39;100.00;97105.06;5083318;28;20317;-56
2023/12/28 07:37:46;;;;;;;3.43;3.13;;;;;;;2.43;100.00;97110.94;5085117;28;20565;-55
2023/12/28 07:40:15;;;;;;;3.20;3.00;;;;;;;2.38;100.00;97102.50;5099165;28;20251;-55
2023/12/28 07:42:42;;;;;;;3.17;2.97;;;;;;;2.40;100.00;97100.69;5100307;28;20246;-54
2023/12/28 07:45:09;;;;;;;3.53;3.13;;;;;;;2.39;100.00;97096.38;5092483;28;20194;-56
2023/12/28 07:47:36;;;;;;;4.37;2.90;;;;;;;2.44;100.00;97097.00;5084772;28;20207;-56
2023/12/28 07:50:02;;;;;;;3.67;3.37;;;;;;;2.45;100.00;97098.66;5082673;28;20202;-56
2023/12/28 07:52:33;;;;;;;3.27;2.97;;;;;;;2.57;100.00;97112.81;5082661;28;20220;-57
2023/12/28 07:55:00;;;;;;;3.40;3.10;;;;;;;2.66;100.00;97112.34;5082968;28;20554;-57
2023/12/28 07:57:26;;;;;;;4.10;3.00;;;;;;;2.75;100.00;97117.88;5082527;28;20198;-56
2023/12/28 07:59:53;;;;;;;3.43;3.10;;;;;;;2.69;100.00;97112.16;5081771;28;20233;-56
2023/12/28 08:02:19;;;;;;;3.83;3.20;;;;;;;2.77;100.00;97113.41;5082799;28;20198;-57
2023/12/28 08:04:46;;;;;;;3.53;3.23;;;;;;;2.80;100.00;97102.78;5082995;28;20200;-56
2023/12/28 08:07:13;;;;;;;3.37;3.00;;;;;;;2.85;100.00;97106.00;5082912;28;20280;-56
2023/12/28 08:09:41;;;;;;;2.93;2.73;;;;;;;2.96;100.00;97097.56;5082420;28;20202;-58
2023/12/28 08:12:08;;;;;;;3.50;3.20;;;;;;;2.95;100.00;97088.88;5083044;28;20206;-56
2023/12/28 08:14:34;;;;;;;3.00;2.80;;;;;;;3.05;100.00;97099.66;5081755;28;20218;-56
2023/12/28 08:17:01;;;;;;;3.57;3.27;;;;;;;3.16;100.00;97106.91;5081800;28;20216;-56
2023/12/28 08:19:28;;;;;;;4.40;3.10;;;;;;;3.22;100.00;97096.97;5081917;28;20206;-56
2023/12/28 08:21:55;;;;;;;3.53;3.20;;;;;;;3.21;100.00;97097.88;5081826;28;20611;-57
2023/12/28 08:24:22;;;;;;;4.30;3.70;;;;;;;3.27;100.00;97104.53;5082269;28;20208;-57
2023/12/28 08:26:50;;;;;;;4.30;3.90;;;;;;;3.31;100.00;97098.19;5081813;28;20859;-57
2023/12/28 08:29:17;;;;;;;3.93;3.63;;;;;;;3.37;100.00;97092.59;5081550;28;20285;-56
2023/12/28 08:31:44;;;;;;;3.93;3.60;;;;;;;3.46;100.00;97086.88;5082618;28;20194;-56
2023/12/28 08:34:12;;;;;;;3.87;3.47;;;;;;;3.53;100.00;97084.72;5082053;28;20228;-57
2023/12/28 08:36:39;;;;;;;4.07;3.67;;;;;;;3.54;100.00;97081.19;5082266;28;20205;-57
2023/12/28 08:39:06;;;;;;;3.93;3.60;;;;;;;3.65;100.00;97086.63;5082010;28;20207;-56
2023/12/28 08:41:35;;;;;;;5.40;3.90;;;;;;;3.66;100.00;97088.31;5082581;28;20553;-56
2023/12/28 08:44:03;;;;;;;4.53;4.13;;;;;;;3.71;100.00;97084.50;5082297;28;20202;-57
2023/12/28 08:46:30;;;;;;;4.20;3.80;;;;;;;3.80;100.00;97089.19;5082187;28;20198;-57
2023/12/28 08:48:57;;;;;;;4.40;4.00;;;;;;;3.82;100.00;97103.03;5082122;28;20202;-56
2023/12/28 08:51:23;;;;;;;4.30;4.00;;;;;;;3.87;100.00;97100.97;5081711;28;20260;-58
2023/12/28 08:53:50;;;;;;;3.80;3.50;;;;;;;3.96;100.00;97094.34;5082152;28;20204;-56
2023/12/28 08:56:23;;;;;;;4.07;3.77;;;;;;;4.01;100.00;97093.13;5086219;28;20240;-57
2023/12/28 08:58:54;;;;;;;3.97;3.67;;;;;;;4.00;100.00;97088.81;5084520;28;20197;-56
2023/12/28 09:01:25;;;;;;;4.17;3.80;;;;;;;4.03;100.00;97092.22;5085502;28;20240;-57
2023/12/28 09:03:54;;;;;;;5.73;4.00;;;;;;;4.07;100.00;97091.09;5085733;28;20320;-57
2023/12/28 09:06:21;;;;;;;4.97;4.47;;;;;;;4.12;100.00;97099.47;5086331;28;20213;-56
2023/12/28 09:08:51;;;;;;;5.53;4.90;;;;;;;4.19;100.00;97109.50;5085893;28;20281;-55
2023/12/28 09:11:18;;;;;;;5.90;5.43;;;;;;;4.18;100.00;97115.66;5086327;28;20222;-57
2023/12/28 09:13:46;;;;;;;6.13;5.53;;;;;;;4.26;100.00;97123.06;5085433;28;20596;-55
2023/12/28 09:16:14;;;;;;;7.17;6.40;;;;;;;4.31;100.00;97127.09;5084705;28;20197;-56
2023/12/28 09:18:42;;;;;;;5.57;4.57;;;;;;;4.36;100.00;97118.94;5085766;28;20213;-57
2023/12/28 09:21:09;;;;;;;4.20;3.80;;;;;;;4.46;100.00;97114.84;5085604;28;20259;-57
2023/12/28 09:23:38;;;;;;;4.33;3.90;;;;;;;4.48;100.00;97112.97;5085211;28;20554;-55
2023/12/28 09:26:08;;;;;;;5.10;3.97;;;;;;;4.50;100.00;97116.31;5085952;28;20289;-56
2023/12/28 09:28:36;;;;;;;4.93;4.17;;;;;;;4.59;100.00;97113.16;5084834;28;20647;-57
2023/12/28 09:31:03;;;;;;;4.97;4.30;;;;;;;4.59;100.00;97113.16;5084984;28;20202;-57
2023/12/28 09:33:30;;;;;;;5.60;4.10;;;;;;;4.66;100.00;97111.81;5085325;28;20221;-57
2023/12/28 09:35:58;;;;;;;4.53;4.13;;;;;;;4.68;100.00;97119.56;5084719;28;20225;-55
2023/12/28 09:38:26;;;;;;;3.83;3.50;;;;;;;4.71;100.00;97119.41;5085454;28;20209;-55
2023/12/28 09:40:54;;;;;;;5.00;4.50;;;;;;;4.73;100.00;97128.84;5085423;28;20198;-57
2023/12/28 09:43:23;;;;;;;4.43;4.03;;;;;;;4.70;100.00;97117.72;5084830;28;20286;-56
2023/12/28 09:45:51;;;;;;;4.27;3.87;;;;;;;4.82;100.00;97125.63;5085405;28;20217;-57
2023/12/28 09:48:18;;;;;;;4.47;4.10;;;;;;;4.87;100.00;97126.22;5085485;28;20201;-55
2023/12/28 09:50:45;;;;;;;5.47;3.93;;;;;;;4.88;100.00;97113.94;5085269;28;20205;-56
2023/12/28 09:53:13;;;;;;;4.27;3.97;;;;;;;4.94;100.00;97119.63;5085388;28;20204;-57
2023/12/28 09:55:40;;;;;;;4.57;4.17;;;;;;;4.94;100.00;97122.25;5085345;28;20210;-57
2023/12/28 09:58:06;;;;;;;4.07;3.67;;;;;;;5.01;100.00;97118.31;5084871;28;20213;-55
2023/12/28 10:00:34;;;;;;;3.87;3.57;;;;;;;4.99;100.00;97125.41;5085095;28;20412;-57
2023/12/28 10:03:02;;;;;;;4.00;3.70;;;;;;;5.03;100.00;97126.91;5086267;28;20212;-57
2023/12/28 10:05:29;;;;;;;5.43;4.23;;;;;;;5.10;100.00;97118.66;5086252;28;20210;-57
2023/12/28 10:07:56;;;;;;;4.23;3.83;;;;;;;5.14;100.00;97128.84;5090943;28;20245;-57
2023/12/28 10:10:24;;;;;;;4.93;4.40;;;;;;;5.18;100.00;97117.22;5089575;28;20738;-56
2023/12/28 10:12:51;;;;;;;4.87;4.37;;;;;;;5.17;100.00;97109.47;5090916;28;21346;-56
2023/12/28 10:15:18;;;;;;;5.57;4.90;;;;;;;5.22;100.00;97117.88;5084864;28;20229;-57
2023/12/28 10:17:47;;;;;;;5.43;4.93;;;;;;;5.22;100.00;97110.00;5085001;28;20212;-57
2023/12/28 10:20:13;;;;;;;6.83;4.80;;;;;;;5.26;100.00;97116.75;5084085;28;20643;-56
2023/12/28 10:22:40;;;;;;;7.93;6.13;;;;;;;5.27;100.00;97103.53;5084316;28;20199;-55
2023/12/28 10:25:08;;;;;;;7.30;5.50;;;;;;;5.28;100.00;97107.81;5083788;28;20579;-57
2023/12/28 10:27:40;;;;;;;5.67;4.73;;;;;;;5.38;100.00;97105.47;5084217;28;20208;-57
2023/12/28 10:30:08;;;;;;;5.37;4.87;;;;;;;5.45;100.00;97093.63;5084432;28;20201;-57
2023/12/28 10:32:35;;;;;;;4.53;4.13;;;;;;;5.49;100.00;97087.25;5085426;28;20216;-55
2023/12/28 10:35:03;;;;;;;5.37;4.70;;;;;;;5.57;100.00;97074.44;5083814;28;20210;-57
2023/12/28 10:37:32;;;;;;;5.33;4.43;;;;;;;5.58;100.00;97070.88;5083872;28;20297;-56
2023/12/28 10:40:00;;;;;;;7.83;4.57;;;;;;;5.63;100.00;97063.56;5084336;28;20212;-56
2023/12/28 10:42:33;;;;;;;5.20;4.70;;;;;;;5.64;100.00;97059.97;5084223;28;20210;-56
2023/12/28 10:45:05;;;;;;;4.80;4.40;;;;;;;5.66;100.00;97057.25;5083791;28;20587;-56
2023/12/28 10:47:34;;;;;;;4.90;4.40;;;;;;;5.82;100.00;97065.75;5084185;28;20218;-56
2023/12/28 10:50:04;;;;;;;5.27;4.27;;;;;;;5.90;100.00;97063.50;5084100;28;20199;-57
2023/12/28 10:52:32;;;;;;;5.40;4.20;;;;;;;5.97;100.00;97063.00;5084576;28;20260;-57
2023/12/28 10:55:12;;;;;;;5.27;4.53;;;;;;;6.04;100.00;97068.66;5083988;28;20561;-56
2023/12/28 10:57:44;;;;;;;5.67;4.90;;;;;;;6.07;100.00;97057.94;5084202;28;20208;-57
2023/12/28 11:00:14;;;;;;;5.53;4.70;;;;;;;6.18;100.00;97046.69;5083301;28;20236;-57
2023/12/28 11:02:45;;;;;;;4.73;4.33;;;;;;;6.23;100.00;97048.06;5083794;28;20198;-57
2023/12/28 11:05:13;;;;;;;4.93;4.43;;;;;;;6.28;100.00;97050.34;5082927;28;20631;-56
2023/12/28 11:07:40;;;;;;;5.80;5.23;;;;;;;6.27;100.00;97054.78;5083726;28;20649;-57
2023/12/28 11:10:10;;;;;;;6.53;5.37;;;;;;;6.43;100.00;97055.41;5083694;28;20206;-57
2023/12/28 11:12:38;;;;;;;6.83;5.53;;;;;;;6.47;100.00;97061.28;5084171;28;20197;-56
2023/12/28 11:15:07;;;;;;;5.23;4.70;;;;;;;6.54;100.00;97064.31;5083715;28;20223;-57
2023/12/28 11:17:36;;;;;;;5.80;5.20;;;;;;;6.61;100.00;97055.03;5083503;28;20193;-57
2023/12/28 11:20:04;;;;;;;8.23;5.50;;;;;;;6.69;100.00;97058.81;5083345;28;20202;-56
2023/12/28 11:22:31;;;;;;;5.70;5.20;;;;;;;6.81;100.00;97052.66;5083144;28;20206;-56
2023/12/28 11:24:58;;;;;;;6.00;5.43;;;;;;;6.89;100.00;97046.88;5082462;28;20631;-55
2023/12/28 11:27:26;;;;;;;6.83;5.93;;;;;;;6.93;100.00;97054.44;5083196;28;20232;-57
2023/12/28 11:29:53;;;;;;;7.57;5.60;;;;;;;7.03;100.00;97045.84;5082828;28;20205;-56
2023/12/28 11:32:20;;;;;;;6.67;5.60;;;;;;;7.10;100.00;97044.47;5085894;28;20302;-56
2023/12/28 11:34:57;;;;;;;6.30;5.70;;;;;;;7.17;100.00;97054.44;5093391;28;20273;-56